sensor_id;sensor_type;location;lat;lon;timestamp;P1;durP1;ratioP1;P2;durP2;ratioP2
13202;SDS011;6666;51.626;7.530;2023-04-25T00:00:12;11.02;;;4.32;;
13202;SDS011;6666;51.626;7.530;2023-04-25T00:02:41;8.40;;;3.80;;
13202;SDS011;6666;51.626;7.530;2023-04-25T00:05:09;13.32;;;4.50;;
13202;SDS011;6666;51.626;7.530;2023-04-25T00:07:38;8.57;;;4.28;;
13202;SDS011;6666;51.626;7.530;2023-04-25T00:10:10;13.63;;;4.05;;
13202;SDS011;6666;51.626;7.530;2023-04-25T00:12:38;10.52;;;4.00;;
13202;SDS011;6666;51.626;7.530;2023-04-25T00:15:08;12.85;;;4.63;;
13202;SDS011;6666;51.626;7.530;2023-04-25T00:17:36;12.10;;;4.63;;
13202;SDS011;6666;51.626;7.530;2023-04-25T00:20:06;17.63;;;4.00;;
13202;SDS011;6666;51.626;7.530;2023-04-25T00:22:36;12.48;;;4.03;;
13202;SDS011;6666;51.626;7.530;2023-04-25T00:25:04;10.70;;;4.18;;
13202;SDS011;6666;51.626;7.530;2023-04-25T00:27:35;6.93;;;3.80;;
13202;SDS011;6666;51.626;7.530;2023-04-25T00:30:05;10.18;;;4.03;;
13202;SDS011;6666;51.626;7.530;2023-04-25T00:32:35;8.15;;;3.75;;
13202;SDS011;6666;51.626;7.530;2023-04-25T00:35:04;8.37;;;3.93;;
13202;SDS011;6666;51.626;7.530;2023-04-25T00:37:32;8.23;;;4.00;;
13202;SDS011;6666;51.626;7.530;2023-04-25T00:40:00;8.48;;;3.80;;
13202;SDS011;6666;51.626;7.530;2023-04-25T00:42:29;11.00;;;4.40;;
13202;SDS011;6666;51.626;7.530;2023-04-25T00:44:59;8.45;;;4.03;;
13202;SDS011;6666;51.626;7.530;2023-04-25T00:47:28;8.70;;;4.10;;
13202;SDS011;6666;51.626;7.530;2023-04-25T00:49:57;10.18;;;3.70;;
13202;SDS011;6666;51.626;7.530;2023-04-25T00:52:25;10.40;;;4.25;;
13202;SDS011;6666;51.626;7.530;2023-04-25T00:54:53;10.20;;;4.30;;
13202;SDS011;6666;51.626;7.530;2023-04-25T00:57:22;9.32;;;4.18;;
13202;SDS011;6666;51.626;7.530;2023-04-25T00:59:51;7.47;;;4.30;;
13202;SDS011;6666;51.626;7.530;2023-04-25T01:02:21;8.32;;;3.97;;
13202;SDS011;6666;51.626;7.530;2023-04-25T01:04:49;9.25;;;4.10;;
13202;SDS011;6666;51.626;7.530;2023-04-25T01:07:18;11.23;;;4.40;;
13202;SDS011;6666;51.626;7.530;2023-04-25T01:09:46;10.00;;;5.30;;
13202;SDS011;6666;51.626;7.530;2023-04-25T01:12:14;6.53;;;3.83;;
13202;SDS011;6666;51.626;7.530;2023-04-25T01:14:42;7.88;;;4.00;;
13202;SDS011;6666;51.626;7.530;2023-04-25T01:17:11;7.50;;;3.90;;
13202;SDS011;6666;51.626;7.530;2023-04-25T01:19:42;9.65;;;4.15;;
13202;SDS011;6666;51.626;7.530;2023-04-25T01:22:12;7.60;;;3.80;;
13202;SDS011;6666;51.626;7.530;2023-04-25T01:24:40;11.80;;;4.07;;
13202;SDS011;6666;51.626;7.530;2023-04-25T01:27:09;8.75;;;3.60;;
13202;SDS011;6666;51.626;7.530;2023-04-25T01:29:38;7.57;;;3.63;;
13202;SDS011;6666;51.626;7.530;2023-04-25T01:32:06;7.00;;;3.47;;
13202;SDS011;6666;51.626;7.530;2023-04-25T01:34:36;7.75;;;3.80;;
13202;SDS011;6666;51.626;7.530;2023-04-25T01:37:04;8.23;;;3.70;;
13202;SDS011;6666;51.626;7.530;2023-04-25T01:39:34;8.93;;;3.90;;
13202;SDS011;6666;51.626;7.530;2023-04-25T01:42:02;6.78;;;3.70;;
13202;SDS011;6666;51.626;7.530;2023-04-25T01:44:30;9.95;;;3.40;;
13202;SDS011;6666;51.626;7.530;2023-04-25T01:46:59;5.97;;;3.58;;
13202;SDS011;6666;51.626;7.530;2023-04-25T01:49:27;9.20;;;3.50;;
13202;SDS011;6666;51.626;7.530;2023-04-25T01:51:55;8.90;;;3.03;;
13202;SDS011;6666;51.626;7.530;2023-04-25T01:54:24;6.60;;;3.40;;
13202;SDS011;6666;51.626;7.530;2023-04-25T01:56:55;5.07;;;3.07;;
13202;SDS011;6666;51.626;7.530;2023-04-25T01:59:24;3.97;;;2.90;;
13202;SDS011;6666;51.626;7.530;2023-04-25T02:02:05;7.78;;;3.33;;
13202;SDS011;6666;51.626;7.530;2023-04-25T02:04:35;7.45;;;3.10;;
13202;SDS011;6666;51.626;7.530;2023-04-25T02:07:03;5.90;;;2.93;;
13202;SDS011;6666;51.626;7.530;2023-04-25T02:09:42;5.30;;;3.00;;
13202;SDS011;6666;51.626;7.530;2023-04-25T02:12:12;9.05;;;3.00;;
13202;SDS011;6666;51.626;7.530;2023-04-25T02:15:00;7.93;;;3.00;;
13202;SDS011;6666;51.626;7.530;2023-04-25T02:17:38;8.15;;;3.50;;
13202;SDS011;6666;51.626;7.530;2023-04-25T02:20:06;6.63;;;3.70;;
13202;SDS011;6666;51.626;7.530;2023-04-25T02:22:35;6.03;;;3.10;;
13202;SDS011;6666;51.626;7.530;2023-04-25T02:25:05;8.80;;;3.70;;
13202;SDS011;6666;51.626;7.530;2023-04-25T02:27:36;7.18;;;3.35;;
13202;SDS011;6666;51.626;7.530;2023-04-25T02:30:07;5.70;;;2.80;;
13202;SDS011;6666;51.626;7.530;2023-04-25T02:32:35;8.20;;;3.35;;
13202;SDS011;6666;51.626;7.530;2023-04-25T02:35:04;6.68;;;3.28;;
13202;SDS011;6666;51.626;7.530;2023-04-25T02:37:33;8.70;;;3.10;;
13202;SDS011;6666;51.626;7.530;2023-04-25T02:40:02;9.13;;;3.30;;
13202;SDS011;6666;51.626;7.530;2023-04-25T02:42:31;3.88;;;2.80;;
13202;SDS011;6666;51.626;7.530;2023-04-25T02:45:01;9.57;;;3.67;;
13202;SDS011;6666;51.626;7.530;2023-04-25T02:47:30;6.82;;;2.78;;
13202;SDS011;6666;51.626;7.530;2023-04-25T02:49:58;9.82;;;3.35;;
13202;SDS011;6666;51.626;7.530;2023-04-25T02:52:27;7.93;;;2.83;;
13202;SDS011;6666;51.626;7.530;2023-04-25T02:55:03;7.60;;;3.08;;
13202;SDS011;6666;51.626;7.530;2023-04-25T02:57:33;12.75;;;3.25;;
13202;SDS011;6666;51.626;7.530;2023-04-25T03:00:03;6.38;;;3.30;;
13202;SDS011;6666;51.626;7.530;2023-04-25T03:02:33;6.93;;;2.95;;
13202;SDS011;6666;51.626;7.530;2023-04-25T03:05:01;6.55;;;3.60;;
13202;SDS011;6666;51.626;7.530;2023-04-25T03:07:31;7.30;;;3.23;;
13202;SDS011;6666;51.626;7.530;2023-04-25T03:09:59;10.38;;;3.75;;
13202;SDS011;6666;51.626;7.530;2023-04-25T03:12:33;11.77;;;3.30;;
13202;SDS011;6666;51.626;7.530;2023-04-25T03:15:06;9.07;;;3.10;;
13202;SDS011;6666;51.626;7.530;2023-04-25T03:17:35;9.90;;;3.65;;
13202;SDS011;6666;51.626;7.530;2023-04-25T03:20:04;7.85;;;3.25;;
13202;SDS011;6666;51.626;7.530;2023-04-25T03:22:35;7.30;;;3.40;;
13202;SDS011;6666;51.626;7.530;2023-04-25T03:25:04;8.90;;;3.70;;
13202;SDS011;6666;51.626;7.530;2023-04-25T03:27:33;7.75;;;2.97;;
13202;SDS011;6666;51.626;7.530;2023-04-25T03:30:02;7.22;;;3.40;;
13202;SDS011;6666;51.626;7.530;2023-04-25T03:32:32;8.43;;;3.20;;
13202;SDS011;6666;51.626;7.530;2023-04-25T03:35:00;8.73;;;3.72;;
13202;SDS011;6666;51.626;7.530;2023-04-25T03:37:31;8.60;;;3.60;;
13202;SDS011;6666;51.626;7.530;2023-04-25T03:40:00;9.95;;;3.60;;
13202;SDS011;6666;51.626;7.530;2023-04-25T03:42:48;12.93;;;3.63;;
13202;SDS011;6666;51.626;7.530;2023-04-25T03:45:17;10.43;;;3.30;;
13202;SDS011;6666;51.626;7.530;2023-04-25T03:47:47;9.45;;;3.35;;
13202;SDS011;6666;51.626;7.530;2023-04-25T03:50:16;7.57;;;3.13;;
13202;SDS011;6666;51.626;7.530;2023-04-25T03:52:44;8.60;;;3.40;;
13202;SDS011;6666;51.626;7.530;2023-04-25T03:55:12;13.02;;;4.35;;
13202;SDS011;6666;51.626;7.530;2023-04-25T03:57:41;9.93;;;3.50;;
13202;SDS011;6666;51.626;7.530;2023-04-25T04:00:09;7.60;;;3.40;;
13202;SDS011;6666;51.626;7.530;2023-04-25T04:02:39;10.67;;;3.63;;
13202;SDS011;6666;51.626;7.530;2023-04-25T04:05:12;11.65;;;4.05;;
13202;SDS011;6666;51.626;7.530;2023-04-25T04:07:46;10.33;;;3.33;;
13202;SDS011;6666;51.626;7.530;2023-04-25T04:10:16;9.80;;;3.30;;
13202;SDS011;6666;51.626;7.530;2023-04-25T04:12:44;8.15;;;3.50;;
13202;SDS011;6666;51.626;7.530;2023-04-25T04:15:12;11.32;;;3.40;;
13202;SDS011;6666;51.626;7.530;2023-04-25T04:17:43;10.32;;;3.30;;
13202;SDS011;6666;51.626;7.530;2023-04-25T04:20:14;11.73;;;3.70;;
13202;SDS011;6666;51.626;7.530;2023-04-25T04:22:43;13.83;;;3.83;;
13202;SDS011;6666;51.626;7.530;2023-04-25T04:25:13;13.98;;;3.65;;
13202;SDS011;6666;51.626;7.530;2023-04-25T04:28:16;10.95;;;3.80;;
13202;SDS011;6666;51.626;7.530;2023-04-25T04:31:07;6.67;;;3.30;;
13202;SDS011;6666;51.626;7.530;2023-04-25T04:33:36;10.38;;;3.60;;
13202;SDS011;6666;51.626;7.530;2023-04-25T04:36:07;8.02;;;2.85;;
13202;SDS011;6666;51.626;7.530;2023-04-25T04:38:36;12.32;;;4.10;;
13202;SDS011;6666;51.626;7.530;2023-04-25T04:41:09;11.20;;;3.47;;
13202;SDS011;6666;51.626;7.530;2023-04-25T04:43:53;9.98;;;3.00;;
13202;SDS011;6666;51.626;7.530;2023-04-25T04:46:35;7.38;;;2.90;;
13202;SDS011;6666;51.626;7.530;2023-04-25T04:49:12;9.80;;;3.22;;
13202;SDS011;6666;51.626;7.530;2023-04-25T04:52:03;9.32;;;3.28;;
13202;SDS011;6666;51.626;7.530;2023-04-25T04:54:53;5.10;;;2.40;;
13202;SDS011;6666;51.626;7.530;2023-04-25T04:57:35;11.45;;;3.35;;
13202;SDS011;6666;51.626;7.530;2023-04-25T05:00:25;8.57;;;2.55;;
13202;SDS011;6666;51.626;7.530;2023-04-25T05:03:10;7.45;;;3.20;;
13202;SDS011;6666;51.626;7.530;2023-04-25T05:05:49;10.35;;;3.10;;
13202;SDS011;6666;51.626;7.530;2023-04-25T05:08:51;13.23;;;3.90;;
13202;SDS011;6666;51.626;7.530;2023-04-25T05:11:36;8.48;;;2.80;;
13202;SDS011;6666;51.626;7.530;2023-04-25T05:14:37;7.85;;;2.38;;
13202;SDS011;6666;51.626;7.530;2023-04-25T05:17:25;8.60;;;2.10;;
13202;SDS011;6666;51.626;7.530;2023-04-25T05:20:01;7.28;;;2.25;;
13202;SDS011;6666;51.626;7.530;2023-04-25T05:22:43;7.90;;;2.00;;
13202;SDS011;6666;51.626;7.530;2023-04-25T05:25:17;9.80;;;2.40;;
13202;SDS011;6666;51.626;7.530;2023-04-25T05:27:56;10.55;;;2.47;;
13202;SDS011;6666;51.626;7.530;2023-04-25T05:30:39;10.40;;;2.42;;
13202;SDS011;6666;51.626;7.530;2023-04-25T05:33:15;6.55;;;2.13;;
13202;SDS011;6666;51.626;7.530;2023-04-25T05:35:44;8.02;;;2.30;;
13202;SDS011;6666;51.626;7.530;2023-04-25T05:38:14;5.50;;;2.15;;
13202;SDS011;6666;51.626;7.530;2023-04-25T05:41:02;7.70;;;2.13;;
13202;SDS011;6666;51.626;7.530;2023-04-25T05:43:47;7.45;;;2.15;;
13202;SDS011;6666;51.626;7.530;2023-04-25T05:46:30;13.82;;;2.40;;
13202;SDS011;6666;51.626;7.530;2023-04-25T05:49:18;8.33;;;2.30;;
13202;SDS011;6666;51.626;7.530;2023-04-25T05:51:55;6.90;;;1.92;;
13202;SDS011;6666;51.626;7.530;2023-04-25T05:54:46;9.73;;;2.20;;
13202;SDS011;6666;51.626;7.530;2023-04-25T05:57:22;6.53;;;1.88;;
13202;SDS011;6666;51.626;7.530;2023-04-25T05:59:53;7.00;;;2.05;;
13202;SDS011;6666;51.626;7.530;2023-04-25T06:02:26;7.57;;;2.40;;
13202;SDS011;6666;51.626;7.530;2023-04-25T06:04:55;6.32;;;2.05;;
13202;SDS011;6666;51.626;7.530;2023-04-25T06:07:24;11.10;;;2.97;;
13202;SDS011;6666;51.626;7.530;2023-04-25T06:09:52;6.25;;;2.15;;
13202;SDS011;6666;51.626;7.530;2023-04-25T06:12:22;7.50;;;2.00;;
13202;SDS011;6666;51.626;7.530;2023-04-25T06:14:53;9.13;;;2.15;;
13202;SDS011;6666;51.626;7.530;2023-04-25T06:17:21;7.25;;;2.10;;
13202;SDS011;6666;51.626;7.530;2023-04-25T06:19:50;9.10;;;2.30;;
13202;SDS011;6666;51.626;7.530;2023-04-25T06:22:19;9.23;;;2.35;;
13202;SDS011;6666;51.626;7.530;2023-04-25T06:24:47;7.18;;;2.50;;
13202;SDS011;6666;51.626;7.530;2023-04-25T06:27:15;8.27;;;2.53;;
13202;SDS011;6666;51.626;7.530;2023-04-25T06:29:46;5.30;;;2.40;;
13202;SDS011;6666;51.626;7.530;2023-04-25T06:32:14;7.78;;;2.15;;
13202;SDS011;6666;51.626;7.530;2023-04-25T06:34:44;8.30;;;2.28;;
13202;SDS011;6666;51.626;7.530;2023-04-25T06:37:13;5.17;;;1.77;;
13202;SDS011;6666;51.626;7.530;2023-04-25T06:39:41;6.93;;;2.30;;
13202;SDS011;6666;51.626;7.530;2023-04-25T06:42:10;9.20;;;2.35;;
13202;SDS011;6666;51.626;7.530;2023-04-25T06:44:44;7.53;;;2.80;;
13202;SDS011;6666;51.626;7.530;2023-04-25T06:47:14;9.15;;;2.35;;
13202;SDS011;6666;51.626;7.530;2023-04-25T06:49:43;9.27;;;2.80;;
13202;SDS011;6666;51.626;7.530;2023-04-25T06:52:11;9.73;;;2.42;;
13202;SDS011;6666;51.626;7.530;2023-04-25T06:54:39;5.87;;;1.90;;
13202;SDS011;6666;51.626;7.530;2023-04-25T06:57:33;8.57;;;2.97;;
13202;SDS011;6666;51.626;7.530;2023-04-25T07:00:23;13.48;;;2.50;;
13202;SDS011;6666;51.626;7.530;2023-04-25T07:02:52;8.70;;;2.20;;
13202;SDS011;6666;51.626;7.530;2023-04-25T07:05:20;8.97;;;2.20;;
13202;SDS011;6666;51.626;7.530;2023-04-25T07:07:49;6.03;;;2.40;;
13202;SDS011;6666;51.626;7.530;2023-04-25T07:10:17;11.13;;;2.90;;
13202;SDS011;6666;51.626;7.530;2023-04-25T07:12:46;9.18;;;2.00;;
13202;SDS011;6666;51.626;7.530;2023-04-25T07:15:14;12.57;;;2.90;;
13202;SDS011;6666;51.626;7.530;2023-04-25T07:17:47;12.32;;;2.40;;
13202;SDS011;6666;51.626;7.530;2023-04-25T07:20:15;11.05;;;2.55;;
13202;SDS011;6666;51.626;7.530;2023-04-25T07:22:43;11.90;;;2.45;;
13202;SDS011;6666;51.626;7.530;2023-04-25T07:25:12;9.43;;;2.40;;
13202;SDS011;6666;51.626;7.530;2023-04-25T07:27:40;8.55;;;2.33;;
13202;SDS011;6666;51.626;7.530;2023-04-25T07:30:15;8.70;;;2.30;;
13202;SDS011;6666;51.626;7.530;2023-04-25T07:32:44;10.15;;;1.92;;
13202;SDS011;6666;51.626;7.530;2023-04-25T07:35:14;8.50;;;2.03;;
13202;SDS011;6666;51.626;7.530;2023-04-25T07:37:42;11.93;;;2.60;;
13202;SDS011;6666;51.626;7.530;2023-04-25T07:40:17;12.68;;;2.60;;
13202;SDS011;6666;51.626;7.530;2023-04-25T07:42:49;7.35;;;2.10;;
13202;SDS011;6666;51.626;7.530;2023-04-25T07:45:34;6.60;;;2.10;;
13202;SDS011;6666;51.626;7.530;2023-04-25T07:48:03;12.10;;;2.97;;
13202;SDS011;6666;51.626;7.530;2023-04-25T07:50:36;8.15;;;2.05;;
13202;SDS011;6666;51.626;7.530;2023-04-25T07:53:05;10.43;;;2.35;;
13202;SDS011;6666;51.626;7.530;2023-04-25T07:55:41;10.27;;;2.40;;
13202;SDS011;6666;51.626;7.530;2023-04-25T07:58:16;7.72;;;2.10;;
13202;SDS011;6666;51.626;7.530;2023-04-25T08:00:51;7.22;;;2.17;;
13202;SDS011;6666;51.626;7.530;2023-04-25T08:03:31;7.80;;;2.20;;
13202;SDS011;6666;51.626;7.530;2023-04-25T08:06:03;4.03;;;1.67;;
13202;SDS011;6666;51.626;7.530;2023-04-25T08:08:41;7.18;;;1.92;;
13202;SDS011;6666;51.626;7.530;2023-04-25T08:11:13;6.70;;;2.00;;
13202;SDS011;6666;51.626;7.530;2023-04-25T08:13:42;14.77;;;2.55;;
13202;SDS011;6666;51.626;7.530;2023-04-25T08:16:11;7.70;;;1.83;;
13202;SDS011;6666;51.626;7.530;2023-04-25T08:18:39;9.63;;;2.10;;
13202;SDS011;6666;51.626;7.530;2023-04-25T08:21:09;7.28;;;1.80;;
13202;SDS011;6666;51.626;7.530;2023-04-25T08:23:38;11.75;;;2.30;;
13202;SDS011;6666;51.626;7.530;2023-04-25T08:26:21;7.90;;;1.90;;
13202;SDS011;6666;51.626;7.530;2023-04-25T08:28:50;4.43;;;1.60;;
13202;SDS011;6666;51.626;7.530;2023-04-25T08:31:19;9.85;;;2.20;;
13202;SDS011;6666;51.626;7.530;2023-04-25T08:33:54;3.60;;;1.52;;
13202;SDS011;6666;51.626;7.530;2023-04-25T08:36:52;16.77;;;2.20;;
13202;SDS011;6666;51.626;7.530;2023-04-25T08:39:46;11.32;;;1.92;;
13202;SDS011;6666;51.626;7.530;2023-04-25T08:42:30;12.13;;;1.70;;
13202;SDS011;6666;51.626;7.530;2023-04-25T08:45:02;5.40;;;1.50;;
13202;SDS011;6666;51.626;7.530;2023-04-25T08:47:51;7.97;;;1.80;;
13202;SDS011;6666;51.626;7.530;2023-04-25T08:50:21;5.45;;;1.50;;
13202;SDS011;6666;51.626;7.530;2023-04-25T08:52:54;3.42;;;1.33;;
13202;SDS011;6666;51.626;7.530;2023-04-25T08:55:25;6.53;;;1.52;;
13202;SDS011;6666;51.626;7.530;2023-04-25T08:57:57;10.23;;;1.40;;
13202;SDS011;6666;51.626;7.530;2023-04-25T09:00:29;12.90;;;1.77;;
13202;SDS011;6666;51.626;7.530;2023-04-25T09:02:58;7.53;;;2.40;;
13202;SDS011;6666;51.626;7.530;2023-04-25T09:05:31;4.00;;;1.60;;
13202;SDS011;6666;51.626;7.530;2023-04-25T09:08:01;5.93;;;1.30;;
13202;SDS011;6666;51.626;7.530;2023-04-25T09:10:30;8.30;;;1.92;;
13202;SDS011;6666;51.626;7.530;2023-04-25T09:13:04;6.00;;;1.40;;
13202;SDS011;6666;51.626;7.530;2023-04-25T09:15:56;3.00;;;1.02;;
13202;SDS011;6666;51.626;7.530;2023-04-25T09:18:39;4.63;;;1.85;;
13202;SDS011;6666;51.626;7.530;2023-04-25T09:21:14;8.73;;;1.60;;
13202;SDS011;6666;51.626;7.530;2023-04-25T09:23:47;5.57;;;1.65;;
13202;SDS011;6666;51.626;7.530;2023-04-25T09:26:17;6.65;;;1.52;;
13202;SDS011;6666;51.626;7.530;2023-04-25T09:28:47;4.38;;;1.42;;
13202;SDS011;6666;51.626;7.530;2023-04-25T09:31:21;3.17;;;1.43;;
13202;SDS011;6666;51.626;7.530;2023-04-25T09:33:58;6.03;;;1.70;;
13202;SDS011;6666;51.626;7.530;2023-04-25T09:36:31;4.70;;;1.23;;
13202;SDS011;6666;51.626;7.530;2023-04-25T09:39:24;8.63;;;1.60;;
13202;SDS011;6666;51.626;7.530;2023-04-25T09:42:04;6.47;;;2.45;;
13202;SDS011;6666;51.626;7.530;2023-04-25T09:44:34;5.25;;;1.40;;
13202;SDS011;6666;51.626;7.530;2023-04-25T09:47:04;7.10;;;1.50;;
13202;SDS011;6666;51.626;7.530;2023-04-25T09:49:38;5.60;;;1.40;;
13202;SDS011;6666;51.626;7.530;2023-04-25T09:52:13;4.95;;;1.20;;
13202;SDS011;6666;51.626;7.530;2023-04-25T09:54:54;4.50;;;1.30;;
13202;SDS011;6666;51.626;7.530;2023-04-25T09:57:29;6.45;;;1.30;;
13202;SDS011;6666;51.626;7.530;2023-04-25T09:59:57;5.00;;;1.70;;
13202;SDS011;6666;51.626;7.530;2023-04-25T10:02:41;5.00;;;1.30;;
13202;SDS011;6666;51.626;7.530;2023-04-25T10:05:23;6.55;;;1.73;;
13202;SDS011;6666;51.626;7.530;2023-04-25T10:07:53;6.68;;;1.23;;
13202;SDS011;6666;51.626;7.530;2023-04-25T10:10:25;5.57;;;1.20;;
13202;SDS011;6666;51.626;7.530;2023-04-25T10:12:57;11.38;;;1.60;;
13202;SDS011;6666;51.626;7.530;2023-04-25T10:15:26;11.63;;;1.50;;
13202;SDS011;6666;51.626;7.530;2023-04-25T10:17:55;3.55;;;1.25;;
13202;SDS011;6666;51.626;7.530;2023-04-25T10:20:24;9.00;;;1.40;;
13202;SDS011;6666;51.626;7.530;2023-04-25T10:22:53;6.55;;;1.38;;
13202;SDS011;6666;51.626;7.530;2023-04-25T10:25:26;5.43;;;1.40;;
13202;SDS011;6666;51.626;7.530;2023-04-25T10:27:55;4.40;;;1.60;;
13202;SDS011;6666;51.626;7.530;2023-04-25T10:30:23;3.00;;;1.10;;
13202;SDS011;6666;51.626;7.530;2023-04-25T10:32:52;4.78;;;1.42;;
13202;SDS011;6666;51.626;7.530;2023-04-25T10:35:24;7.45;;;1.20;;
13202;SDS011;6666;51.626;7.530;2023-04-25T10:37:57;4.85;;;1.30;;
13202;SDS011;6666;51.626;7.530;2023-04-25T10:40:38;5.70;;;1.20;;
13202;SDS011;6666;51.626;7.530;2023-04-25T10:46:17;6.97;;;2.00;;
13202;SDS011;6666;51.626;7.530;2023-04-25T10:48:46;3.90;;;0.90;;
13202;SDS011;6666;51.626;7.530;2023-04-25T10:51:16;2.40;;;1.15;;
13202;SDS011;6666;51.626;7.530;2023-04-25T10:53:46;5.80;;;1.13;;
13202;SDS011;6666;51.626;7.530;2023-04-25T10:56:26;7.70;;;1.27;;
13202;SDS011;6666;51.626;7.530;2023-04-25T10:59:02;4.28;;;1.40;;
13202;SDS011;6666;51.626;7.530;2023-04-25T11:01:37;3.40;;;1.20;;
13202;SDS011;6666;51.626;7.530;2023-04-25T11:04:18;5.00;;;1.40;;
13202;SDS011;6666;51.626;7.530;2023-04-25T11:06:51;6.25;;;1.20;;
13202;SDS011;6666;51.626;7.530;2023-04-25T11:09:33;2.33;;;0.90;;
13202;SDS011;6666;51.626;7.530;2023-04-25T11:12:03;4.55;;;1.00;;
13202;SDS011;6666;51.626;7.530;2023-04-25T11:14:32;4.83;;;1.30;;
13202;SDS011;6666;51.626;7.530;2023-04-25T11:17:00;4.07;;;1.20;;
13202;SDS011;6666;51.626;7.530;2023-04-25T11:19:29;3.67;;;1.55;;
13202;SDS011;6666;51.626;7.530;2023-04-25T11:21:58;5.90;;;1.35;;
13202;SDS011;6666;51.626;7.530;2023-04-25T11:24:27;23.80;;;2.88;;
13202;SDS011;6666;51.626;7.530;2023-04-25T11:26:56;76.03;;;9.13;;
13202;SDS011;6666;51.626;7.530;2023-04-25T11:29:27;22.00;;;3.13;;
13202;SDS011;6666;51.626;7.530;2023-04-25T11:31:56;3.90;;;1.20;;
13202;SDS011;6666;51.626;7.530;2023-04-25T11:34:25;1.10;;;0.60;;
13202;SDS011;6666;51.626;7.530;2023-04-25T11:36:53;2.88;;;0.90;;
13202;SDS011;6666;51.626;7.530;2023-04-25T11:39:23;3.63;;;1.10;;
13202;SDS011;6666;51.626;7.530;2023-04-25T11:41:52;2.25;;;1.10;;
13202;SDS011;6666;51.626;7.530;2023-04-25T11:44:20;5.15;;;0.98;;
13202;SDS011;6666;51.626;7.530;2023-04-25T11:46:50;4.53;;;1.10;;
13202;SDS011;6666;51.626;7.530;2023-04-25T11:49:18;1.87;;;0.90;;
13202;SDS011;6666;51.626;7.530;2023-04-25T11:51:48;2.40;;;0.75;;
13202;SDS011;6666;51.626;7.530;2023-04-25T11:54:16;0.93;;;0.50;;
13202;SDS011;6666;51.626;7.530;2023-04-25T11:56:45;21.93;;;3.23;;
13202;SDS011;6666;51.626;7.530;2023-04-25T11:59:13;2.47;;;1.17;;
13202;SDS011;6666;51.626;7.530;2023-04-25T12:01:47;2.08;;;0.73;;
13202;SDS011;6666;51.626;7.530;2023-04-25T12:04:18;2.10;;;0.70;;
13202;SDS011;6666;51.626;7.530;2023-04-25T12:06:49;2.20;;;0.70;;
13202;SDS011;6666;51.626;7.530;2023-04-25T12:09:20;4.50;;;0.80;;
13202;SDS011;6666;51.626;7.530;2023-04-25T12:11:49;1.20;;;0.70;;
13202;SDS011;6666;51.626;7.530;2023-04-25T12:14:21;5.50;;;0.98;;
13202;SDS011;6666;51.626;7.530;2023-04-25T12:16:52;4.70;;;1.00;;
13202;SDS011;6666;51.626;7.530;2023-04-25T12:19:25;1.50;;;0.80;;
13202;SDS011;6666;51.626;7.530;2023-04-25T12:21:53;1.60;;;0.75;;
13202;SDS011;6666;51.626;7.530;2023-04-25T12:24:25;2.40;;;0.80;;
13202;SDS011;6666;51.626;7.530;2023-04-25T12:26:59;14.80;;;2.30;;
13202;SDS011;6666;51.626;7.530;2023-04-25T12:29:29;2.03;;;0.80;;
13202;SDS011;6666;51.626;7.530;2023-04-25T12:32:15;2.60;;;1.20;;
13202;SDS011;6666;51.626;7.530;2023-04-25T12:34:44;2.10;;;0.82;;
13202;SDS011;6666;51.626;7.530;2023-04-25T12:37:13;2.65;;;0.73;;
13202;SDS011;6666;51.626;7.530;2023-04-25T12:39:42;1.65;;;0.75;;
13202;SDS011;6666;51.626;7.530;2023-04-25T12:42:10;1.80;;;0.70;;
13202;SDS011;6666;51.626;7.530;2023-04-25T12:44:39;19.38;;;3.15;;
13202;SDS011;6666;51.626;7.530;2023-04-25T12:47:08;6.00;;;1.20;;
13202;SDS011;6666;51.626;7.530;2023-04-25T12:49:36;2.17;;;0.70;;
13202;SDS011;6666;51.626;7.530;2023-04-25T12:52:06;2.47;;;0.90;;
13202;SDS011;6666;51.626;7.530;2023-04-25T12:54:34;2.60;;;1.20;;
13202;SDS011;6666;51.626;7.530;2023-04-25T12:57:02;3.00;;;1.20;;
13202;SDS011;6666;51.626;7.530;2023-04-25T12:59:31;3.67;;;1.00;;
13202;SDS011;6666;51.626;7.530;2023-04-25T13:01:59;2.47;;;0.90;;
13202;SDS011;6666;51.626;7.530;2023-04-25T13:04:27;2.58;;;0.90;;
13202;SDS011;6666;51.626;7.530;2023-04-25T13:06:56;4.30;;;1.20;;
13202;SDS011;6666;51.626;7.530;2023-04-25T13:09:25;2.45;;;0.95;;
13202;SDS011;6666;51.626;7.530;2023-04-25T13:11:54;6.22;;;1.20;;
13202;SDS011;6666;51.626;7.530;2023-04-25T13:14:24;3.63;;;0.90;;
13202;SDS011;6666;51.626;7.530;2023-04-25T13:16:52;1.70;;;0.80;;
13202;SDS011;6666;51.626;7.530;2023-04-25T13:19:21;1.70;;;0.90;;
13202;SDS011;6666;51.626;7.530;2023-04-25T13:21:49;2.58;;;1.10;;
13202;SDS011;6666;51.626;7.530;2023-04-25T13:24:18;2.50;;;0.90;;
13202;SDS011;6666;51.626;7.530;2023-04-25T13:26:47;3.30;;;1.40;;
13202;SDS011;6666;51.626;7.530;2023-04-25T13:29:15;2.43;;;1.00;;
13202;SDS011;6666;51.626;7.530;2023-04-25T13:31:44;3.30;;;1.05;;
13202;SDS011;6666;51.626;7.530;2023-04-25T13:34:12;2.63;;;1.10;;
13202;SDS011;6666;51.626;7.530;2023-04-25T13:36:40;3.80;;;0.90;;
13202;SDS011;6666;51.626;7.530;2023-04-25T13:39:08;1.95;;;0.70;;
13202;SDS011;6666;51.626;7.530;2023-04-25T13:41:38;2.40;;;0.70;;
13202;SDS011;6666;51.626;7.530;2023-04-25T13:44:08;2.50;;;0.90;;
13202;SDS011;6666;51.626;7.530;2023-04-25T13:46:37;2.20;;;0.70;;
13202;SDS011;6666;51.626;7.530;2023-04-25T13:49:12;1.80;;;0.80;;
13202;SDS011;6666;51.626;7.530;2023-04-25T13:51:41;1.23;;;0.85;;
13202;SDS011;6666;51.626;7.530;2023-04-25T13:54:09;3.28;;;0.80;;
13202;SDS011;6666;51.626;7.530;2023-04-25T13:56:37;3.50;;;1.30;;
13202;SDS011;6666;51.626;7.530;2023-04-25T13:59:09;3.60;;;1.90;;
13202;SDS011;6666;51.626;7.530;2023-04-25T14:01:38;3.83;;;1.90;;
13202;SDS011;6666;51.626;7.530;2023-04-25T14:04:06;2.28;;;0.80;;
13202;SDS011;6666;51.626;7.530;2023-04-25T14:06:34;2.60;;;1.00;;
13202;SDS011;6666;51.626;7.530;2023-04-25T14:09:03;1.73;;;0.83;;
13202;SDS011;6666;51.626;7.530;2023-04-25T14:11:33;2.90;;;0.73;;
13202;SDS011;6666;51.626;7.530;2023-04-25T14:14:02;1.83;;;0.73;;
13202;SDS011;6666;51.626;7.530;2023-04-25T14:16:32;3.58;;;1.05;;
13202;SDS011;6666;51.626;7.530;2023-04-25T14:19:01;3.00;;;0.90;;
13202;SDS011;6666;51.626;7.530;2023-04-25T14:21:29;2.10;;;0.80;;
13202;SDS011;6666;51.626;7.530;2023-04-25T14:23:59;2.05;;;0.80;;
13202;SDS011;6666;51.626;7.530;2023-04-25T14:26:27;2.25;;;1.00;;
13202;SDS011;6666;51.626;7.530;2023-04-25T14:28:55;2.90;;;0.90;;
13202;SDS011;6666;51.626;7.530;2023-04-25T14:31:23;4.90;;;1.17;;
13202;SDS011;6666;51.626;7.530;2023-04-25T14:33:53;2.80;;;0.70;;
13202;SDS011;6666;51.626;7.530;2023-04-25T14:36:25;3.30;;;1.00;;
13202;SDS011;6666;51.626;7.530;2023-04-25T14:38:53;3.40;;;0.90;;
13202;SDS011;6666;51.626;7.530;2023-04-25T14:41:22;3.30;;;0.73;;
13202;SDS011;6666;51.626;7.530;2023-04-25T14:43:51;1.20;;;0.80;;
13202;SDS011;6666;51.626;7.530;2023-04-25T14:46:20;1.92;;;0.90;;
13202;SDS011;6666;51.626;7.530;2023-04-25T14:48:50;4.70;;;0.80;;
13202;SDS011;6666;51.626;7.530;2023-04-25T14:51:22;0.98;;;0.80;;
13202;SDS011;6666;51.626;7.530;2023-04-25T14:53:50;2.38;;;0.95;;
13202;SDS011;6666;51.626;7.530;2023-04-25T14:56:19;4.15;;;1.15;;
13202;SDS011;6666;51.626;7.530;2023-04-25T14:58:47;2.10;;;0.90;;
13202;SDS011;6666;51.626;7.530;2023-04-25T15:01:16;1.70;;;1.00;;
13202;SDS011;6666;51.626;7.530;2023-04-25T15:03:47;5.30;;;1.00;;
13202;SDS011;6666;51.626;7.530;2023-04-25T15:06:17;3.80;;;0.80;;
13202;SDS011;6666;51.626;7.530;2023-04-25T15:08:45;1.80;;;0.85;;
13202;SDS011;6666;51.626;7.530;2023-04-25T15:11:14;2.00;;;0.80;;
13202;SDS011;6666;51.626;7.530;2023-04-25T15:13:42;2.73;;;0.73;;
13202;SDS011;6666;51.626;7.530;2023-04-25T15:16:10;1.70;;;0.80;;
13202;SDS011;6666;51.626;7.530;2023-04-25T15:18:39;1.20;;;0.60;;
13202;SDS011;6666;51.626;7.530;2023-04-25T15:21:07;5.60;;;0.90;;
13202;SDS011;6666;51.626;7.530;2023-04-25T15:23:37;3.38;;;0.90;;
13202;SDS011;6666;51.626;7.530;2023-04-25T15:26:05;2.17;;;0.80;;
13202;SDS011;6666;51.626;7.530;2023-04-25T15:28:33;2.40;;;0.70;;